createdAt,value
2018-11-11T00:00:14.006Z,15.68
2018-11-11T00:05:17.107Z,15.69
2018-11-11T00:10:20.762Z,15.72
2018-11-11T00:15:27.047Z,15.74
2018-11-11T00:20:30.091Z,15.76
2018-11-11T00:25:33.136Z,15.80
2018-11-11T00:30:39.382Z,15.86
2018-11-11T00:35:44.876Z,15.85
2018-11-11T00:40:49.057Z,15.80
2018-11-11T00:45:54.798Z,15.82
2018-11-11T00:50:57.895Z,15.89
2018-11-11T00:56:04.730Z,15.94
2018-11-11T01:01:10.091Z,15.98
2018-11-11T01:06:13.220Z,16.00
2018-11-11T01:11:19.105Z,15.93
2018-11-11T01:16:22.223Z,15.85
2018-11-11T01:21:25.349Z,15.88
2018-11-11T01:26:28.454Z,15.81
2018-11-11T01:31:31.535Z,15.72
2018-11-11T01:36:34.621Z,15.67
2018-11-11T01:41:37.752Z,15.62
2018-11-11T01:58:11.123Z,15.77
2018-11-11T02:03:14.197Z,15.80
2018-11-11T02:08:17.392Z,15.81
2018-11-11T02:13:20.429Z,15.80
2018-11-11T02:18:23.511Z,15.74
2018-11-11T02:23:26.771Z,15.70
2018-11-11T02:28:29.852Z,15.59
2018-11-11T02:33:32.993Z,15.50
2018-11-11T02:38:36.129Z,15.39
2018-11-11T02:43:39.226Z,15.27
2018-11-11T02:48:42.295Z,15.24
2018-11-11T02:53:45.633Z,15.26
2018-11-11T02:58:48.834Z,15.32
2018-11-11T03:03:51.897Z,15.40
2018-11-11T03:08:54.965Z,15.43
2018-11-11T03:13:58.062Z,15.40
2018-11-11T03:19:01.105Z,15.43
2018-11-11T03:24:04.716Z,15.40
2018-11-11T03:29:07.849Z,15.20
2018-11-11T03:34:10.901Z,15.07
2018-11-11T03:39:14.013Z,14.90
2018-11-11T03:44:17.072Z,14.77
2018-11-11T03:49:20.158Z,14.63
2018-11-11T03:54:23.193Z,14.58
2018-11-11T03:59:26.255Z,14.53
2018-11-11T04:04:29.545Z,14.52
2018-11-11T04:09:32.810Z,14.48
2018-11-11T04:14:35.895Z,14.42
2018-11-11T04:19:38.969Z,14.36
2018-11-11T04:24:42.044Z,14.32
2018-11-11T04:29:45.141Z,14.33
2018-11-11T04:34:48.218Z,14.32
2018-11-11T04:39:51.323Z,14.26
2018-11-11T04:44:54.688Z,14.22
2018-11-11T04:49:57.747Z,14.17
2018-11-11T04:55:01.037Z,14.13
2018-11-11T05:00:05.816Z,14.10
2018-11-11T05:05:10.059Z,14.08
2018-11-11T05:10:13.690Z,14.09
2018-11-11T05:15:16.784Z,14.12
2018-11-11T05:20:19.842Z,14.11
2018-11-11T05:25:22.930Z,14.23
2018-11-11T05:30:25.970Z,14.36
2018-11-11T05:35:29.049Z,14.44
2018-11-11T05:40:32.156Z,14.44
2018-11-11T05:45:35.227Z,14.50
2018-11-11T05:50:38.292Z,14.64
2018-11-11T05:55:41.594Z,14.67
2018-11-11T06:00:44.681Z,14.68
2018-11-11T06:05:47.735Z,14.75
2018-11-11T06:10:50.819Z,14.78
2018-11-11T06:15:53.930Z,14.80
2018-11-11T06:20:57.048Z,14.87
2018-11-11T06:26:00.242Z,14.89
2018-11-11T06:31:04.380Z,14.94
2018-11-11T06:36:07.455Z,14.96
2018-11-11T06:41:10.560Z,14.98
2018-11-11T06:46:13.947Z,15.01
2018-11-11T06:51:17.009Z,15.05
2018-11-11T06:56:20.258Z,15.06
2018-11-11T07:01:23.326Z,15.07
2018-11-11T07:06:26.874Z,15.12
2018-11-11T07:11:30.032Z,15.17
2018-11-11T07:16:33.123Z,15.20
2018-11-11T07:21:36.611Z,15.19
2018-11-11T07:26:39.724Z,15.18
2018-11-11T07:31:42.864Z,15.20
2018-11-11T07:36:46.034Z,15.23
2018-11-11T07:41:49.174Z,15.36
2018-11-11T07:46:52.255Z,15.45
2018-11-11T07:51:55.450Z,15.58
2018-11-11T07:56:58.810Z,15.67
2018-11-11T08:02:02.008Z,15.68
2018-11-11T08:07:05.692Z,15.69
2018-11-11T08:12:09.028Z,15.75
2018-11-11T08:17:12.094Z,15.77
2018-11-11T08:22:15.155Z,15.82
2018-11-11T08:27:18.227Z,15.86
2018-11-11T08:32:21.354Z,15.91
2018-11-11T08:37:24.389Z,16.02
2018-11-11T08:42:27.511Z,16.02
2018-11-11T08:47:30.688Z,16.22
2018-11-11T08:52:33.874Z,16.34
2018-11-11T08:57:37.086Z,16.50
2018-11-11T09:02:40.691Z,16.55
2018-11-11T09:07:43.881Z,16.45
2018-11-11T09:12:46.984Z,16.50
2018-11-11T09:17:50.076Z,16.49
2018-11-11T09:22:53.144Z,16.40
2018-11-11T09:27:56.295Z,16.35
2018-11-11T09:32:59.347Z,16.32
2018-11-11T09:38:02.384Z,16.55
2018-11-11T09:43:06.044Z,16.76
2018-11-11T09:48:09.093Z,16.96
2018-11-11T09:53:12.194Z,17.14
2018-11-11T09:58:15.226Z,17.13
2018-11-11T10:03:22.269Z,17.17
2018-11-11T10:19:56.942Z,17.49
2018-11-11T10:25:08.788Z,18.01
2018-11-11T10:30:19.096Z,18.28
2018-11-11T10:35:29.184Z,18.13
2018-11-11T10:40:50.424Z,17.76
2018-11-11T10:45:59.952Z,17.50
2018-11-11T10:51:04.243Z,17.64
2018-11-11T10:56:07.331Z,17.86
2018-11-11T11:01:16.202Z,17.99
2018-11-11T11:06:23.818Z,18.21
2018-11-11T11:11:26.974Z,18.48
2018-11-11T11:16:30.053Z,18.83
2018-11-11T11:21:33.108Z,18.89
2018-11-11T11:26:36.292Z,18.78
2018-11-11T11:31:39.450Z,18.77
2018-11-11T11:36:42.419Z,18.97
2018-11-11T11:41:45.507Z,18.85
2018-11-11T11:46:48.580Z,18.84
2018-11-11T11:51:51.748Z,19.00
2018-11-11T11:56:54.935Z,18.75
2018-11-11T12:01:58.055Z,18.18
2018-11-11T12:07:04.610Z,18.24
2018-11-11T12:12:18.010Z,18.31
2018-11-11T12:17:24.716Z,18.05
2018-11-11T12:22:31.994Z,17.99
2018-11-11T12:27:37.480Z,17.82
2018-11-11T12:32:40.506Z,17.90
2018-11-11T12:37:45.415Z,17.92
2018-11-11T12:42:57.474Z,17.90
2018-11-11T12:48:00.558Z,17.81
2018-11-11T12:58:19.409Z,17.82
2018-11-11T13:03:25.075Z,17.84
2018-11-11T13:08:28.157Z,17.86
2018-11-11T13:13:31.415Z,18.20
2018-11-11T13:18:34.867Z,18.33
2018-11-11T13:23:37.946Z,18.20
2018-11-11T13:28:41.017Z,18.02
2018-11-11T13:33:44.119Z,17.88
2018-11-11T13:38:50.305Z,17.81
2018-11-11T13:43:56.802Z,17.84
2018-11-11T13:49:02.526Z,17.90
2018-11-11T13:54:10.024Z,18.01
2018-11-11T13:59:15.485Z,17.95
2018-11-11T14:04:18.649Z,17.88
2018-11-11T14:09:21.703Z,17.77
2018-11-11T14:14:24.748Z,17.67
2018-11-11T14:19:28.244Z,17.59
2018-11-11T14:24:31.362Z,17.62
2018-11-11T14:29:34.617Z,17.57
2018-11-11T14:34:37.674Z,17.57
2018-11-11T14:39:40.778Z,17.55
2018-11-11T14:44:43.850Z,17.46
2018-11-11T14:49:47.353Z,17.47
2018-11-11T14:54:50.413Z,17.47
2018-11-11T14:59:53.463Z,17.36
2018-11-11T15:04:56.578Z,17.40
2018-11-11T15:09:59.661Z,17.33
2018-11-11T15:15:02.826Z,17.30
2018-11-11T15:20:07.692Z,17.14
2018-11-11T15:25:14.654Z,17.13
2018-11-11T15:30:20.150Z,17.05
2018-11-11T15:35:23.270Z,17.04
2018-11-11T15:40:27.683Z,17.09
2018-11-11T15:45:33.026Z,17.08
2018-11-11T15:50:36.652Z,17.06
2018-11-11T15:55:40.267Z,17.16
2018-11-11T16:00:43.745Z,17.16
2018-11-11T16:05:46.751Z,17.12
2018-11-11T16:10:49.807Z,16.98
2018-11-11T16:15:52.839Z,16.92
2018-11-11T16:20:55.968Z,16.71
2018-11-11T16:25:59.003Z,16.55
2018-11-11T16:31:02.043Z,16.52
2018-11-11T16:36:05.464Z,16.52
2018-11-11T16:41:08.834Z,16.65
2018-11-11T16:46:11.730Z,16.68
2018-11-11T16:51:14.846Z,16.69
2018-11-11T16:56:17.922Z,16.77
2018-11-11T17:01:23.250Z,16.77
2018-11-11T17:06:26.435Z,16.76
2018-11-11T17:11:29.491Z,16.64
2018-11-11T17:16:32.559Z,16.66
2018-11-11T17:21:35.655Z,16.78
2018-11-11T17:26:38.895Z,16.62
2018-11-11T17:31:42.234Z,16.53
2018-11-11T17:36:45.409Z,16.56
2018-11-11T17:41:48.590Z,16.55
2018-11-11T17:46:51.674Z,16.51
2018-11-11T17:51:54.829Z,16.50
2018-11-11T17:56:57.930Z,16.51
2018-11-11T18:02:00.999Z,16.51
2018-11-11T18:07:04.143Z,16.55
2018-11-11T18:12:07.252Z,16.57
